Ganzhou Airport


Codes: ZSGZ/KOW
Name: Ganzhou Airport
City: Ganzhou
Country: China
Elevation: 387 ft.
Wikipedia:

Photos at Ganzhou Airport


   Photos courtesy of SpottingLog. You can add your own sightings and photos by signing up for a free trial today.



No photos found.

Weather at Ganzhou Airport


Time (UTC)DescriptionTempratureWindCloud coverageVisibilityPressureHumidity
21-Feb-2024 03:00Overcast Clouds26°C13 mph, S96%10000m1013hPa62%
21-Feb-2024 06:00Light Rain26°C4 mph, SW97%10000m1012hPa63%
21-Feb-2024 09:00Light Rain20°C11 mph, N99%10000m1014hPa76%
21-Feb-2024 12:00Overcast Clouds14°C11 mph, N100%10000m1017hPa83%
21-Feb-2024 15:00Overcast Clouds11°C11 mph, N100%10000m1020hPa83%
21-Feb-2024 18:00Overcast Clouds10°C11 mph, N100%10000m1021hPa81%
21-Feb-2024 21:00Overcast Clouds8°C11 mph, N100%10000m1023hPa84%
22-Feb-2024 00:00Overcast Clouds7°C9 mph, N100%10000m1025hPa84%
22-Feb-2024 03:00Overcast Clouds7°C9 mph, N100%10000m1026hPa82%
22-Feb-2024 06:00Overcast Clouds7°C9 mph, N100%10000m1024hPa81%
22-Feb-2024 09:00Overcast Clouds6°C9 mph, N100%10000m1025hPa81%
22-Feb-2024 12:00Light Rain5°C9 mph, N100%10000m1026hPa83%
22-Feb-2024 15:00Overcast Clouds5°C9 mph, N100%10000m1027hPa82%
22-Feb-2024 18:00Overcast Clouds4°C7 mph, N100%10000m1028hPa82%
22-Feb-2024 21:00Overcast Clouds4°C7 mph, N100%10000m1027hPa82%
23-Feb-2024 00:00Overcast Clouds4°C9 mph, N100%10000m1029hPa84%
23-Feb-2024 03:00Overcast Clouds4°C7 mph, N100%10000m1030hPa82%
23-Feb-2024 06:00Light Rain4°C9 mph, N100%10000m1028hPa80%
23-Feb-2024 09:00Overcast Clouds4°C7 mph, N100%10000m1028hPa79%
23-Feb-2024 12:00Overcast Clouds4°C7 mph, N100%10000m1029hPa81%
23-Feb-2024 15:00Overcast Clouds4°C7 mph, N100%10000m1030hPa82%
23-Feb-2024 18:00Light Rain4°C7 mph, N100%10000m1028hPa85%
23-Feb-2024 21:00Overcast Clouds4°C7 mph, N100%10000m1027hPa86%
24-Feb-2024 00:00Overcast Clouds4°C4 mph, N100%10000m1028hPa86%
24-Feb-2024 03:00Overcast Clouds5°C4 mph, N100%10000m1028hPa81%
24-Feb-2024 06:00Overcast Clouds7°C7 mph, N100%10000m1026hPa77%
24-Feb-2024 09:00Overcast Clouds7°C7 mph, N97%10000m1025hPa79%
24-Feb-2024 12:00Overcast Clouds5°C9 mph, N94%10000m1027hPa83%
24-Feb-2024 15:00Overcast Clouds5°C7 mph, N99%10000m1028hPa82%
24-Feb-2024 18:00Overcast Clouds5°C7 mph, N99%10000m1027hPa84%
24-Feb-2024 21:00Overcast Clouds4°C7 mph, N100%10000m1027hPa85%
25-Feb-2024 00:00Overcast Clouds4°C7 mph, N100%10000m1028hPa84%
25-Feb-2024 03:00Overcast Clouds5°C9 mph, N100%10000m1029hPa80%
25-Feb-2024 06:00Overcast Clouds6°C9 mph, N100%10000m1026hPa76%
25-Feb-2024 09:00Overcast Clouds6°C9 mph, N100%10000m1026hPa77%
25-Feb-2024 12:00Overcast Clouds5°C9 mph, N100%10000m1028hPa80%
25-Feb-2024 15:00Overcast Clouds5°C7 mph, N100%10000m1028hPa82%
25-Feb-2024 18:00Overcast Clouds4°C7 mph, N100%10000m1028hPa85%
25-Feb-2024 21:00Overcast Clouds4°C7 mph, N100%10000m1027hPa84%
26-Feb-2024 00:00Overcast Clouds4°C7 mph, N100%10000m1028hPa82%